Time;durP1;ratioP1;P1;durP2;ratioP2;P2;SDS_P1;SDS_P2;PMS_P1;PMS_P2;Temp;Humidity;BMP_temperature;BMP_pressure;BME280_temperature;BME280_humidity;BME280_pressure;Samples;Min_cycle;Max_cycle;Signal;HPM_P1;HPM_P2
2022/12/01 00:00:45;;;;;;;48.28;22.83;;;;;;;3.89;81.40;92832.91;2071369;69;20225;-72
2022/12/01 00:03:11;;;;;;;44.95;22.15;;;;;;;3.76;82.01;92842.28;2071345;69;20152;-72
2022/12/01 00:05:36;;;;;;;41.53;21.48;;;;;;;3.86;81.79;92834.06;2071353;69;20210;-72
2022/12/01 00:08:04;;;;;;;50.65;22.73;;;;;;;3.81;81.52;92832.22;2071297;69;20137;-77
2022/12/01 00:10:30;;;;;;;48.05;23.58;;;;;;;3.81;81.93;92835.75;2071289;69;20313;-74
2022/12/01 00:12:58;;;;;;;43.83;22.20;;;;;;;3.39;83.32;92840.34;2071342;69;20284;-74
2022/12/01 00:15:29;;;;;;;46.83;22.13;;;;;;;3.61;82.88;92822.81;2071180;69;20239;-73
2022/12/01 00:17:56;;;;;;;47.35;23.30;;;;;;;3.81;81.90;92830.19;2071206;69;20175;-76
2022/12/01 00:20:22;;;;;;;45.90;23.15;;;;;;;3.71;81.73;92832.09;2071248;69;20163;-73
2022/12/01 00:22:48;;;;;;;44.95;22.10;;;;;;;3.47;82.94;92827.16;2071357;69;20534;-74
2022/12/01 00:25:16;;;;;;;50.00;22.63;;;;;;;3.85;81.72;92827.00;2071243;69;20140;-72
2022/12/01 00:27:42;;;;;;;46.80;23.38;;;;;;;3.42;82.30;92828.84;2071230;69;20160;-72
2022/12/01 00:30:10;;;;;;;46.50;22.30;;;;;;;3.46;83.45;92825.66;2070809;69;20189;-72
2022/12/01 00:32:36;;;;;;;43.78;21.80;;;;;;;3.48;83.21;92826.59;2071214;69;20290;-73
2022/12/01 00:35:04;;;;;;;48.35;23.83;;;;;;;3.14;84.14;92829.09;2071446;69;20678;-72
2022/12/01 00:37:31;;;;;;;44.92;22.42;;;;;;;3.51;83.47;92830.28;2071349;69;20238;-72
2022/12/01 00:39:58;;;;;;;44.35;22.42;;;;;;;3.76;81.63;92827.59;2071261;69;20557;-72
2022/12/01 00:42:23;;;;;;;44.58;21.63;;;;;;;3.36;82.89;92828.31;2070660;69;20174;-74
2022/12/01 00:44:49;;;;;;;45.40;23.02;;;;;;;3.10;83.79;92826.69;2072185;69;20183;-72
2022/12/01 00:47:15;;;;;;;47.75;23.25;;;;;;;3.36;83.69;92831.09;2071565;69;20477;-75
2022/12/01 00:49:40;;;;;;;45.15;22.20;;;;;;;3.50;82.54;92820.47;2071282;69;20210;-78
2022/12/01 00:52:07;;;;;;;43.97;22.02;;;;;;;3.53;82.41;92827.69;2070741;69;20129;-77
2022/12/01 00:54:32;;;;;;;43.13;21.77;;;;;;;3.45;82.40;92832.53;2070688;69;20136;-74
2022/12/01 00:57:01;;;;;;;47.15;22.55;;;;;;;3.44;83.13;92833.84;2071306;69;20187;-73
2022/12/01 00:59:27;;;;;;;49.20;23.42;;;;;;;3.65;81.96;92831.53;2071193;69;20155;-76
2022/12/01 01:01:53;;;;;;;45.88;22.58;;;;;;;3.58;82.44;92840.66;2071208;69;20148;-76
2022/12/01 01:04:19;;;;;;;44.30;21.70;;;;;;;3.63;81.98;92834.16;2071045;69;20160;-73
2022/12/01 01:06:44;;;;;;;44.60;21.90;;;;;;;3.62;81.42;92832.69;2071227;69;20129;-72
2022/12/01 01:09:11;;;;;;;45.53;21.80;;;;;;;3.75;81.00;92840.03;2071414;69;20148;-74
2022/12/01 01:11:37;;;;;;;47.38;22.85;;;;;;;3.43;81.71;92844.22;2071278;69;20247;-73
2022/12/01 01:14:03;;;;;;;44.90;22.58;;;;;;;3.54;81.63;92840.31;2070689;69;20176;-79
2022/12/01 01:16:29;;;;;;;47.38;23.33;;;;;;;3.67;81.33;92842.13;2071282;69;20167;-79
2022/12/01 01:18:56;;;;;;;46.40;22.58;;;;;;;3.47;81.19;92841.06;2071161;69;20151;-75
2022/12/01 01:21:22;;;;;;;50.25;23.63;;;;;;;3.28;82.38;92836.66;2070703;69;20171;-74
2022/12/01 01:23:49;;;;;;;46.33;21.75;;;;;;;3.53;81.87;92839.56;2070678;69;20187;-75
2022/12/01 01:26:15;;;;;;;46.83;22.65;;;;;;;3.58;81.61;92832.31;2071163;69;20148;-76
2022/12/01 01:28:44;;;;;;;48.42;22.48;;;;;;;3.59;81.55;92831.00;2071532;69;20231;-76
2022/12/01 01:31:12;;;;;;;46.88;22.85;;;;;;;3.75;80.49;92835.19;2071839;69;20175;-84
2022/12/01 01:33:37;;;;;;;45.97;22.65;;;;;;;3.82;79.96;92831.66;2071823;69;20151;-85
2022/12/01 01:36:04;;;;;;;48.85;22.98;;;;;;;3.81;79.96;92829.44;2071828;69;20165;-74
2022/12/01 01:38:30;;;;;;;44.78;22.30;;;;;;;3.92;79.47;92829.00;2071977;69;20217;-72
2022/12/01 01:40:56;;;;;;;44.05;22.23;;;;;;;3.94;79.21;92826.41;2072013;69;20148;-72
2022/12/01 01:43:36;;;;;;;43.90;21.88;;;;;;;3.89;79.51;92824.56;2071720;69;20152;-72
2022/12/01 01:46:03;;;;;;;46.65;22.67;;;;;;;3.90;79.08;92828.84;2071770;69;20132;-72
2022/12/01 01:48:29;;;;;;;44.17;21.75;;;;;;;3.98;79.04;92832.31;2071564;69;20175;-79
2022/12/01 01:50:54;;;;;;;44.60;22.10;;;;;;;3.76;79.80;92833.91;2071726;69;20140;-80
2022/12/01 01:53:20;;;;;;;42.90;21.67;;;;;;;3.85;79.75;92829.03;2071691;69;20151;-78
2022/12/01 01:55:46;;;;;;;47.28;23.38;;;;;;;3.87;79.19;92834.78;2071725;69;20271;-82
2022/12/01 01:58:12;;;;;;;45.15;22.60;;;;;;;3.80;79.41;92828.69;2071805;69;20231;-85
2022/12/01 02:00:41;;;;;;;44.03;21.90;;;;;;;3.92;79.32;92829.00;2071767;69;20187;-82
2022/12/01 02:03:09;;;;;;;41.95;20.88;;;;;;;4.01;78.52;92836.03;2071540;69;20234;-77
2022/12/01 02:05:36;;;;;;;47.42;22.75;;;;;;;4.05;78.25;92833.59;2071781;69;20147;-77
2022/12/01 02:08:03;;;;;;;40.78;21.73;;;;;;;4.05;78.26;92828.00;2071367;69;20152;-73
2022/12/01 02:10:58;;;;;;;43.70;22.00;;;;;;;4.03;78.71;92834.16;2070946;69;20270;-71
2022/12/01 02:13:33;;;;;;;41.45;21.65;;;;;;;4.09;78.51;92825.59;2068179;69;20155;-78
2022/12/01 02:16:37;;;;;;;41.40;21.10;;;;;;;4.03;78.60;92823.00;2071508;69;20160;-79
2022/12/01 02:19:27;;;;;;;46.30;23.00;;;;;;;3.88;79.56;92827.91;2069247;69;20137;-71
2022/12/01 02:22:10;;;;;;;43.20;21.35;;;;;;;3.76;80.15;92822.03;2068774;69;20575;-73
2022/12/01 02:24:35;;;;;;;42.95;20.98;;;;;;;3.95;79.40;92825.09;2072476;69;20168;-79
2022/12/01 02:27:06;;;;;;;48.17;21.30;;;;;;;3.98;79.09;92829.53;2070413;69;20188;-77
2022/12/01 02:30:01;;;;;;;43.92;22.02;;;;;;;3.95;79.49;92821.56;2065005;69;20519;-72
2022/12/01 02:32:36;;;;;;;43.70;22.10;;;;;;;3.81;79.78;92812.72;2065652;69;20145;-73
2022/12/01 02:35:20;;;;;;;44.70;21.67;;;;;;;3.52;81.09;92810.22;2065490;69;20137;-74
2022/12/01 02:38:09;;;;;;;49.25;23.13;;;;;;;3.45;81.61;92815.84;2065428;69;20152;-74
2022/12/01 02:41:03;;;;;;;46.50;22.50;;;;;;;3.39;81.73;92821.63;2065190;69;20592;-76
2022/12/01 02:43:42;;;;;;;45.70;22.35;;;;;;;3.45;81.25;92816.59;2065035;69;20141;-74
2022/12/01 02:46:10;;;;;;;46.15;21.55;;;;;;;3.48;81.51;92821.03;2064690;69;20533;-72
2022/12/01 02:48:38;;;;;;;45.35;22.67;;;;;;;3.43;81.78;92813.59;2064777;69;20207;-77
2022/12/01 02:51:16;;;;;;;45.33;21.95;;;;;;;3.48;81.79;92818.25;2064793;69;20226;-71
2022/12/01 02:53:42;;;;;;;46.03;21.67;;;;;;;3.30;82.25;92814.59;2064423;69;20160;-72
2022/12/01 02:56:13;;;;;;;45.03;21.55;;;;;;;3.51;81.58;92814.31;2064904;69;20136;-72
2022/12/01 02:58:39;;;;;;;46.38;22.27;;;;;;;3.68;80.86;92812.97;2065065;69;20167;-73
2022/12/01 03:01:11;;;;;;;42.10;20.83;;;;;;;3.78;80.10;92811.81;2064377;69;20218;-73
2022/12/01 03:03:36;;;;;;;44.88;21.63;;;;;;;3.72;79.90;92810.53;2064648;69;20140;-74
2022/12/01 03:06:58;;;;;;;48.95;23.27;;;;;;;3.72;80.01;92816.84;2064687;69;20229;-72
2022/12/01 03:09:29;;;;;;;45.20;21.88;;;;;;;3.70;79.93;92813.88;2058300;69;20591;-73
2022/12/01 03:12:19;;;;;;;41.42;20.98;;;;;;;3.54;80.35;92816.00;2065239;69;20157;-75
2022/12/01 03:15:14;;;;;;;46.80;22.08;;;;;;;3.64;80.74;92815.41;2064503;69;20141;-75
2022/12/01 03:18:15;;;;;;;45.05;22.15;;;;;;;3.67;80.16;92814.28;2065022;69;20141;-73
2022/12/01 03:21:00;;;;;;;44.38;21.85;;;;;;;3.64;80.23;92809.84;2065056;69;20154;-73
2022/12/01 03:23:31;;;;;;;49.92;23.08;;;;;;;3.47;80.57;92810.44;2065439;69;20213;-83
2022/12/01 03:26:05;;;;;;;50.63;23.05;;;;;;;3.50;81.23;92806.53;2061532;69;20161;-71
2022/12/01 03:28:41;;;;;;;48.55;23.10;;;;;;;3.53;81.16;92805.44;2067581;69;20132;-76
2022/12/01 03:31:14;;;;;;;47.35;22.10;;;;;;;3.56;81.25;92798.72;2068546;69;20210;-73
2022/12/01 03:33:56;;;;;;;50.42;23.90;;;;;;;3.48;81.41;92809.91;2068074;69;20206;-73
2022/12/01 03:36:38;;;;;;;50.78;23.92;;;;;;;3.46;81.24;92815.28;2068515;69;20210;-84
2022/12/01 03:39:11;;;;;;;46.33;23.23;;;;;;;3.69;80.09;92817.22;2068760;69;20227;-82
2022/12/01 03:41:42;;;;;;;;;;;;;;;3.52;80.53;92818.59;2068692;69;20144;-74
2022/12/01 03:44:15;;;;;;;47.85;23.50;;;;;;;3.31;81.89;92823.69;2068569;69;20136;-77
2022/12/01 03:46:52;;;;;;;51.47;25.05;;;;;;;3.16;82.42;92818.91;2068088;69;20145;-74
2022/12/01 03:49:22;;;;;;;54.00;24.70;;;;;;;3.13;82.77;92822.06;2067806;69;20239;-75
2022/12/01 03:51:54;;;;;;;50.15;24.60;;;;;;;3.25;82.65;92823.88;2068006;69;20603;-80
2022/12/01 03:54:32;;;;;;;47.88;22.80;;;;;;;3.43;81.34;92819.16;2068069;69;20184;-74
2022/12/01 03:57:04;;;;;;;53.72;24.23;;;;;;;3.48;80.95;92818.25;2067797;69;20239;-79
2022/12/01 03:59:34;;;;;;;53.35;24.77;;;;;;;3.64;80.21;92818.19;2067868;69;20199;-74
2022/12/01 04:02:00;;;;;;;51.80;23.35;;;;;;;3.50;80.89;92821.19;2067804;69;20202;-73
2022/12/01 04:04:25;;;;;;;47.85;22.40;;;;;;;3.40;80.75;92823.09;2067531;69;20596;-73
2022/12/01 04:06:51;;;;;;;46.15;22.27;;;;;;;3.43;80.63;92824.00;2067731;69;20152;-73
2022/12/01 04:09:17;;;;;;;50.97;22.92;;;;;;;3.41;81.19;92809.91;2067209;69;20139;-73
2022/12/01 04:14:26;;;;;;;45.45;21.90;;;;;;;3.33;81.72;92825.88;2068019;69;20675;-74
2022/12/01 04:16:52;;;;;;;51.70;22.75;;;;;;;3.14;81.76;92818.72;2067871;69;20148;-74
2022/12/01 04:19:17;;;;;;;49.25;22.77;;;;;;;3.38;81.57;92825.69;2067769;69;20623;-73
2022/12/01 04:21:43;;;;;;;45.33;22.17;;;;;;;3.53;80.67;92816.56;2068069;69;20183;-73
2022/12/01 04:24:10;;;;;;;43.97;22.42;;;;;;;3.48;80.88;92823.06;2067345;69;20191;-73
2022/12/01 04:26:36;;;;;;;50.38;23.27;;;;;;;3.44;81.13;92815.09;2067552;69;20271;-74
2022/12/01 04:29:05;;;;;;;44.28;22.45;;;;;;;3.37;81.10;92815.13;2063885;69;20249;-75
2022/12/01 04:31:31;;;;;;;48.08;22.40;;;;;;;3.55;80.97;92816.72;2064336;69;20248;-74
2022/12/01 04:33:57;;;;;;;48.75;22.75;;;;;;;3.63;80.22;92819.50;2064408;69;20643;-74
2022/12/01 04:36:24;;;;;;;49.42;24.35;;;;;;;3.60;80.27;92812.25;2064502;69;20198;-73
2022/12/01 04:38:50;;;;;;;44.05;22.42;;;;;;;3.60;80.33;92810.22;2064292;69;20188;-73
2022/12/01 04:41:17;;;;;;;46.15;22.88;;;;;;;3.59;80.45;92816.34;2064444;69;20184;-72
2022/12/01 04:43:43;;;;;;;48.28;22.25;;;;;;;3.48;80.93;92818.25;2064810;69;20188;-73
2022/12/01 04:46:10;;;;;;;48.53;23.02;;;;;;;3.41;80.79;92819.00;2064289;69;20176;-74
2022/12/01 04:48:39;;;;;;;43.88;22.08;;;;;;;3.47;81.07;92819.53;2064445;69;20179;-73
2022/12/01 04:51:07;;;;;;;47.92;22.23;;;;;;;3.44;81.09;92819.94;2064570;69;20149;-72
2022/12/01 04:53:34;;;;;;;46.42;22.80;;;;;;;3.51;80.61;92813.59;2063902;69;20229;-73
2022/12/01 04:56:00;;;;;;;48.97;23.38;;;;;;;3.48;80.27;92815.47;2065031;69;20226;-73
2022/12/01 04:58:28;;;;;;;46.83;22.98;;;;;;;3.62;80.04;92815.22;2064943;69;20207;-72
2022/12/01 05:00:53;;;;;;;51.78;23.85;;;;;;;3.61;79.92;92817.25;2064829;69;20588;-72
2022/12/01 05:03:20;;;;;;;50.50;23.50;;;;;;;3.51;80.31;92808.03;2064113;69;20187;-77
2022/12/01 05:05:46;;;;;;;49.80;23.45;;;;;;;3.60;80.19;92812.25;2063942;69;20153;-72
2022/12/01 05:08:11;;;;;;;47.22;22.88;;;;;;;3.61;79.79;92820.03;2064452;69;20239;-76
2022/12/01 05:10:37;;;;;;;52.67;22.80;;;;;;;3.56;80.06;92809.84;2064388;69;20186;-73
2022/12/01 05:13:04;;;;;;;46.15;21.98;;;;;;;3.54;80.29;92809.69;2064327;69;20611;-74
2022/12/01 05:15:31;;;;;;;52.03;23.95;;;;;;;3.48;80.69;92817.47;2064254;69;20188;-73
2022/12/01 05:17:57;;;;;;;48.92;24.05;;;;;;;3.55;80.72;92813.94;2064093;69;20178;-73
2022/12/01 05:23:08;;;;;;;53.47;24.52;;;;;;;3.19;81.49;92817.03;2064353;69;20224;-73
2022/12/01 05:25:36;;;;;;;53.75;23.42;;;;;;;3.19;82.51;92820.53;2063735;69;20137;-73
2022/12/01 05:28:02;;;;;;;49.42;24.02;;;;;;;3.41;81.50;92810.66;2064264;69;20226;-73
2022/12/01 05:30:28;;;;;;;52.28;25.15;;;;;;;3.46;80.83;92812.50;2064172;69;20152;-74
2022/12/01 05:32:54;;;;;;;51.55;24.67;;;;;;;3.37;80.79;92817.91;2064267;69;20141;-73
2022/12/01 05:35:19;;;;;;;49.28;22.80;;;;;;;3.36;81.24;92822.72;2064288;69;20280;-73
2022/12/01 05:37:45;;;;;;;50.05;24.35;;;;;;;3.16;82.27;92813.34;2064189;69;20328;-73
2022/12/01 05:40:11;;;;;;;47.60;23.08;;;;;;;3.18;82.55;92821.84;2064289;69;20145;-73
2022/12/01 05:42:36;;;;;;;54.30;25.08;;;;;;;3.18;81.95;92826.69;2064377;69;20160;-74
2022/12/01 05:45:02;;;;;;;51.35;24.33;;;;;;;3.18;82.85;92823.91;2063651;69;20137;-74
2022/12/01 05:47:28;;;;;;;50.90;25.23;;;;;;;3.36;81.94;92828.31;2064296;69;20311;-76
2022/12/01 05:49:53;;;;;;;49.45;24.55;;;;;;;3.52;80.90;92832.50;2064311;69;20228;-72
2022/12/01 05:52:19;;;;;;;50.78;24.88;;;;;;;3.57;80.58;92825.25;2064476;69;20175;-72
2022/12/01 05:54:44;;;;;;;50.40;23.63;;;;;;;3.51;80.67;92828.25;2064152;69;20156;-73
2022/12/01 05:57:12;;;;;;;52.90;25.00;;;;;;;3.13;82.11;92828.34;2063562;69;20133;-73
2022/12/01 05:59:37;;;;;;;51.65;26.67;;;;;;;3.10;82.71;92826.69;2064207;69;20137;-73
2022/12/01 06:02:03;;;;;;;59.17;27.38;;;;;;;3.21;82.67;92834.66;2063806;69;20141;-73
2022/12/01 06:04:28;;;;;;;54.25;26.08;;;;;;;2.96;83.51;92833.75;2064324;69;20149;-73
2022/12/01 06:06:54;;;;;;;50.42;24.85;;;;;;;3.15;83.24;92841.69;2064739;69;20145;-76
2022/12/01 06:09:19;;;;;;;53.58;25.00;;;;;;;3.32;82.45;92836.28;2064518;69;20168;-80
2022/12/01 06:11:45;;;;;;;54.63;25.25;;;;;;;3.50;81.38;92839.94;2064618;69;20153;-76
2022/12/01 06:14:10;;;;;;;49.03;23.60;;;;;;;3.63;80.70;92844.56;2064630;69;20156;-77
2022/12/01 06:16:36;;;;;;;50.53;23.15;;;;;;;3.47;80.99;92844.59;2064853;69;20136;-75
2022/12/01 06:19:01;;;;;;;53.75;26.33;;;;;;;3.23;81.89;92834.09;2064910;69;20566;-78
2022/12/01 06:21:27;;;;;;;52.78;25.20;;;;;;;3.15;82.14;92839.66;2064870;69;20480;-75
2022/12/01 06:23:54;;;;;;;63.75;29.45;;;;;;;2.74;84.16;92847.13;2064924;69;20152;-80
2022/12/01 06:26:19;;;;;;;54.90;25.58;;;;;;;2.68;84.55;92845.84;2065060;69;20264;-73
2022/12/01 06:28:45;;;;;;;54.33;24.65;;;;;;;3.01;83.94;92841.16;2064874;69;20620;-75
2022/12/01 06:31:12;;;;;;;52.70;23.95;;;;;;;3.28;82.38;92847.06;2064574;69;20161;-73
2022/12/01 06:33:37;;;;;;;54.08;26.02;;;;;;;3.25;82.02;92850.94;2064853;69;20671;-74
2022/12/01 06:36:05;;;;;;;54.05;25.63;;;;;;;2.96;83.19;92853.22;2064982;69;20148;-73
2022/12/01 06:38:35;;;;;;;52.85;24.73;;;;;;;2.99;83.86;92855.63;2065043;69;20188;-81
2022/12/01 06:41:01;;;;;;;53.35;24.80;;;;;;;3.29;82.23;92856.88;2064950;69;20168;-80
2022/12/01 06:43:28;;;;;;;53.28;25.45;;;;;;;3.17;82.22;92853.03;2065138;69;20153;-81
2022/12/01 06:45:54;;;;;;;55.10;24.77;;;;;;;3.03;82.79;92853.22;2064411;69;20612;-80
2022/12/01 06:48:20;;;;;;;50.45;24.50;;;;;;;3.25;82.17;92862.84;2064846;69;20176;-74
2022/12/01 06:50:45;;;;;;;54.85;26.02;;;;;;;3.18;82.01;92860.81;2064960;69;20156;-79
2022/12/01 06:53:11;;;;;;;60.70;30.25;;;;;;;3.13;82.74;92864.53;2065138;69;20481;-81
2022/12/01 06:55:38;;;;;;;56.65;25.60;;;;;;;3.42;81.37;92870.56;2061773;69;20220;-81
2022/12/01 06:58:04;;;;;;;59.13;26.17;;;;;;;3.05;82.44;92858.97;2064940;69;20141;-82
2022/12/01 07:00:30;;;;;;;53.63;25.92;;;;;;;3.17;82.43;92866.94;2064826;69;20647;-79
2022/12/01 07:02:59;;;;;;;53.30;24.63;;;;;;;3.11;82.48;92872.66;2064816;69;20167;-74
2022/12/01 07:05:25;;;;;;;58.67;25.73;;;;;;;3.12;82.88;92874.19;2065171;69;20232;-74
2022/12/01 07:07:50;;;;;;;53.92;25.60;;;;;;;3.19;82.67;92867.84;2066637;69;20145;-73
2022/12/01 07:10:16;;;;;;;49.05;24.48;;;;;;;3.31;82.19;92876.56;2066139;69;20218;-81
2022/12/01 07:12:41;;;;;;;57.30;26.95;;;;;;;3.48;81.10;92875.94;2064941;69;20234;-78
2022/12/01 07:15:07;;;;;;;71.80;31.42;;;;;;;3.45;81.39;92874.28;2064978;69;20710;-79
2022/12/01 07:17:34;;;;;;;92.15;38.60;;;;;;;3.31;81.69;92874.50;2064235;69;20695;-82
2022/12/01 07:20:00;;;;;;;68.25;30.23;;;;;;;3.30;81.70;92883.44;2064964;69;20165;-78
2022/12/01 07:22:27;;;;;;;59.03;27.48;;;;;;;3.07;82.51;92877.88;2061570;69;20566;-78
2022/12/01 07:24:52;;;;;;;56.22;26.77;;;;;;;3.17;82.88;92881.59;2067146;69;20243;-76
2022/12/01 07:27:18;;;;;;;52.47;26.25;;;;;;;3.35;82.37;92876.19;2069624;69;20612;-81
2022/12/01 07:29:44;;;;;;;68.40;32.17;;;;;;;3.18;82.02;92885.09;2071740;69;20555;-73
2022/12/01 07:32:09;;;;;;;65.18;30.77;;;;;;;3.21;82.64;92889.56;2071432;69;20535;-73
2022/12/01 07:34:35;;;;;;;52.72;24.63;;;;;;;2.96;83.04;92892.16;2071312;69;20144;-73
2022/12/01 07:37:00;;;;;;;54.33;24.98;;;;;;;3.11;82.99;92894.91;2071368;69;20235;-72
2022/12/01 07:39:26;;;;;;;57.15;26.73;;;;;;;3.05;82.85;92889.56;2071372;69;20156;-73
2022/12/01 07:41:52;;;;;;;55.50;25.65;;;;;;;3.20;82.63;92899.19;2071510;69;20179;-73
2022/12/01 07:44:17;;;;;;;56.40;26.13;;;;;;;3.33;81.59;92901.75;2071332;69;20147;-73
2022/12/01 07:46:43;;;;;;;48.53;23.63;;;;;;;3.18;82.60;92899.75;2071367;69;20144;-76
2022/12/01 07:49:10;;;;;;;57.40;25.35;;;;;;;3.39;82.37;92901.56;2071272;69;20160;-73
2022/12/01 07:51:37;;;;;;;50.97;23.90;;;;;;;3.29;82.36;92904.91;2071500;69;20180;-73
2022/12/01 07:54:05;;;;;;;52.88;25.20;;;;;;;3.31;82.61;92910.69;2071441;69;20201;-73
2022/12/01 07:56:31;;;;;;;52.15;24.17;;;;;;;3.59;81.43;92902.66;2071396;69;20573;-72
2022/12/01 07:58:56;;;;;;;51.17;24.40;;;;;;;3.62;80.82;92907.84;2071409;69;20150;-73
2022/12/01 08:01:24;;;;;;;48.58;23.30;;;;;;;3.58;80.89;92904.69;2071357;69;20167;-73
2022/12/01 08:03:53;;;;;;;47.40;23.80;;;;;;;3.63;81.12;92912.09;2071321;69;20150;-74
2022/12/01 08:06:20;;;;;;;54.92;24.10;;;;;;;3.54;80.95;92909.91;2071431;69;20496;-77
2022/12/01 08:08:47;;;;;;;52.67;25.00;;;;;;;3.48;81.47;92914.91;2071525;69;20231;-74
2022/12/01 08:11:19;;;;;;;49.50;24.42;;;;;;;3.64;81.14;92910.81;2071456;69;20144;-74
2022/12/01 08:13:45;;;;;;;50.78;24.90;;;;;;;3.77;80.24;92913.38;2071453;69;20151;-75
2022/12/01 08:16:12;;;;;;;50.75;24.13;;;;;;;3.61;80.75;92914.69;2071382;69;20156;-76
2022/12/01 08:18:39;;;;;;;55.22;25.67;;;;;;;3.55;80.87;92911.38;2071397;69;20150;-73
2022/12/01 08:21:07;;;;;;;51.25;24.60;;;;;;;3.59;81.07;92917.31;2071348;69;20143;-74
2022/12/01 08:23:33;;;;;;;53.33;24.90;;;;;;;3.81;80.33;92913.72;2068024;69;20148;-74
2022/12/01 08:26:04;;;;;;;52.58;23.60;;;;;;;3.96;79.64;92921.28;2071686;69;20159;-75
2022/12/01 08:28:30;;;;;;;47.25;23.67;;;;;;;4.07;79.04;92923.63;2071529;69;20184;-74
2022/12/01 08:30:56;;;;;;;47.92;23.48;;;;;;;4.06;78.93;92919.38;2071420;69;20224;-73
2022/12/01 08:33:22;;;;;;;47.58;23.23;;;;;;;4.03;78.78;92914.94;2071276;69;20220;-73
2022/12/01 08:35:47;;;;;;;47.30;23.67;;;;;;;4.01;78.72;92919.59;2071422;69;20132;-74
2022/12/01 08:38:14;;;;;;;46.55;22.80;;;;;;;4.13;78.31;92912.31;2067917;69;20147;-76
2022/12/01 08:40:40;;;;;;;44.90;23.25;;;;;;;4.30;78.21;92906.81;2071344;69;20241;-73
2022/12/01 08:43:06;;;;;;;46.00;22.20;;;;;;;4.37;78.37;92910.88;2071463;69;20167;-73
2022/12/01 08:45:32;;;;;;;47.42;22.80;;;;;;;4.33;78.06;92911.25;2067954;69;20148;-73
2022/12/01 08:47:58;;;;;;;45.90;22.48;;;;;;;4.12;78.35;92913.59;2071181;69;20626;-73
2022/12/01 08:50:27;;;;;;;43.58;21.92;;;;;;;4.29;77.17;92910.19;2068067;69;20148;-73
2022/12/01 08:52:54;;;;;;;41.50;20.92;;;;;;;4.30;77.39;92911.66;2071209;69;20140;-76
2022/12/01 08:55:20;;;;;;;45.78;22.83;;;;;;;4.39;77.25;92913.09;2071421;69;20175;-79
2022/12/01 08:57:46;;;;;;;43.78;22.48;;;;;;;4.39;77.69;92911.03;2071333;69;20564;-73
2022/12/01 09:00:12;;;;;;;44.55;23.13;;;;;;;4.50;77.07;92915.47;2071231;69;20143;-73
2022/12/01 09:02:38;;;;;;;42.72;21.90;;;;;;;4.59;77.05;92910.00;2071979;69;20160;-73
2022/12/01 09:05:04;;;;;;;42.67;21.75;;;;;;;4.03;77.42;92909.38;2068199;69;20144;-76
2022/12/01 09:07:30;;;;;;;45.03;22.02;;;;;;;4.01;77.60;92911.97;2071212;69;20704;-73
2022/12/01 09:09:55;;;;;;;46.45;22.38;;;;;;;4.29;77.72;92924.13;2071214;69;20158;-76
2022/12/01 09:12:21;;;;;;;43.80;22.75;;;;;;;4.46;76.82;92915.13;2068020;69;20589;-73
2022/12/01 09:14:48;;;;;;;45.10;22.95;;;;;;;4.55;76.20;92909.66;2071091;69;20591;-73
2022/12/01 09:17:15;;;;;;;42.13;22.30;;;;;;;4.62;76.35;92905.34;2071309;69;20163;-72
2022/12/01 09:19:41;;;;;;;42.30;22.25;;;;;;;4.67;76.11;92914.78;2071208;69;20144;-72
2022/12/01 09:22:08;;;;;;;40.80;21.27;;;;;;;4.30;75.65;92912.38;2071375;69;20156;-77
2022/12/01 09:24:33;;;;;;;40.00;20.63;;;;;;;4.28;75.69;92911.50;2071248;69;20159;-79
2022/12/01 09:27:02;;;;;;;41.15;20.88;;;;;;;4.61;75.86;92912.22;2067963;69;20144;-77
2022/12/01 09:29:28;;;;;;;40.75;21.73;;;;;;;4.61;75.35;92911.50;2071840;69;20233;-83
2022/12/01 09:31:55;;;;;;;42.67;21.67;;;;;;;4.18;77.24;92916.91;2071412;69;20552;-72
2022/12/01 09:34:21;;;;;;;44.13;21.58;;;;;;;4.64;76.23;92916.69;2071113;69;20655;-76
2022/12/01 09:36:47;;;;;;;43.70;21.65;;;;;;;4.75;75.86;92918.28;2067893;69;20144;-75
2022/12/01 09:39:16;;;;;;;40.33;20.65;;;;;;;4.79;75.54;92913.03;2071257;69;20136;-74
2022/12/01 09:41:54;;;;;;;41.47;21.27;;;;;;;5.02;74.33;92910.09;2071151;69;20583;-73
2022/12/01 09:44:39;;;;;;;38.70;20.80;;;;;;;4.87;74.03;92904.63;2071111;69;20156;-74
2022/12/01 09:47:08;;;;;;;41.28;20.40;;;;;;;5.20;74.20;92903.25;2071236;69;20160;-74
2022/12/01 09:49:44;;;;;;;41.95;21.77;;;;;;;5.21;73.88;92896.34;2071430;69;20199;-74
2022/12/01 09:52:13;;;;;;;42.08;21.40;;;;;;;5.14;74.36;92902.00;2071930;69;20224;-74
2022/12/01 09:54:39;;;;;;;45.22;21.90;;;;;;;4.79;74.02;92891.47;2072251;69;20170;-74
2022/12/01 09:57:10;;;;;;;37.55;19.35;;;;;;;4.93;74.41;92889.13;2071913;69;20577;-74
2022/12/01 09:59:40;;;;;;;39.05;20.52;;;;;;;5.10;73.83;92894.03;2068652;69;20276;-74
2022/12/01 10:02:39;;;;;;;34.83;19.35;;;;;;;4.99;73.71;92878.47;2072253;69;20137;-75
2022/12/01 10:05:13;;;;;;;35.65;20.15;;;;;;;5.06;73.65;92885.31;2071692;69;20210;-75
2022/12/01 10:07:47;;;;;;;37.70;20.52;;;;;;;4.76;73.21;92887.00;2071735;69;20145;-75
2022/12/01 10:10:24;;;;;;;41.00;19.52;;;;;;;5.27;73.69;92885.69;2071878;69;20217;-75
2022/12/01 10:12:50;;;;;;;36.75;19.58;;;;;;;5.28;72.53;92892.03;2068543;69;20215;-75
2022/12/01 10:15:35;;;;;;;35.65;19.80;;;;;;;5.42;72.34;92889.66;2071857;69;20231;-75
2022/12/01 10:18:36;;;;;;;36.78;19.88;;;;;;;5.64;72.38;92882.38;2071261;69;20145;-75
2022/12/01 10:21:39;;;;;;;37.38;20.70;;;;;;;5.50;73.36;92879.16;2071554;69;20175;-75
2022/12/01 10:24:17;;;;;;;39.00;19.90;;;;;;;5.27;72.52;92882.91;2071585;69;20155;-75
2022/12/01 10:26:59;;;;;;;38.35;20.50;;;;;;;5.52;72.38;92873.72;2071776;69;20621;-78
2022/12/01 10:29:45;;;;;;;39.83;20.35;;;;;;;5.49;70.90;92872.06;2072265;69;20155;-82
2022/12/01 10:32:16;;;;;;;35.47;19.13;;;;;;;5.62;71.61;92866.16;2072594;69;20151;-75
2022/12/01 10:34:45;;;;;;;34.83;19.17;;;;;;;5.78;71.07;92870.28;2071970;69;20172;-75
2022/12/01 10:37:19;;;;;;;36.38;19.77;;;;;;;5.75;71.85;92860.25;2071907;69;20176;-75
2022/12/01 10:39:49;;;;;;;35.90;19.55;;;;;;;5.82;71.11;92867.09;2071832;69;20638;-75
2022/12/01 10:42:23;;;;;;;35.55;18.80;;;;;;;5.69;69.95;92870.22;2072147;69;20167;-78
2022/12/01 10:44:49;;;;;;;36.80;19.98;;;;;;;5.32;71.55;92853.28;2071896;69;20164;-74
2022/12/01 10:47:19;;;;;;;32.63;18.55;;;;;;;5.63;70.97;92855.72;2071628;69;20129;-75
2022/12/01 10:49:44;;;;;;;34.85;18.73;;;;;;;5.60;70.01;92852.78;2068524;69;20190;-75
2022/12/01 10:52:36;;;;;;;36.42;19.80;;;;;;;5.91;70.58;92858.03;2071604;69;20204;-75
2022/12/01 10:55:22;;;;;;;40.05;18.95;;;;;;;5.97;70.31;92852.94;2071686;69;20244;-75
2022/12/01 10:57:48;;;;;;;30.80;17.33;;;;;;;5.86;69.53;92847.81;2071836;69;20160;-75
2022/12/01 11:00:25;;;;;;;34.20;18.88;;;;;;;6.14;70.21;92846.59;2071815;69;20554;-75
2022/12/01 11:02:51;;;;;;;31.80;17.77;;;;;;;6.06;69.37;92849.47;2071903;69;20198;-76
2022/12/01 11:05:26;;;;;;;33.38;18.50;;;;;;;5.76;68.86;92849.81;2071631;69;20164;-75
2022/12/01 11:07:52;;;;;;;38.58;17.70;;;;;;;5.28;70.35;92842.50;2071869;69;20244;-75
2022/12/01 11:10:22;;;;;;;33.40;17.80;;;;;;;5.18;70.20;92838.88;2071587;69;20167;-80
2022/12/01 11:13:13;;;;;;;33.63;18.40;;;;;;;5.98;70.50;92837.66;2071614;69;20311;-76
2022/12/01 11:15:47;;;;;;;32.85;18.27;;;;;;;6.05;69.62;92841.69;2071952;69;20221;-78
2022/12/01 11:18:27;;;;;;;30.08;17.40;;;;;;;6.21;69.52;92834.56;2068248;69;20247;-75
2022/12/01 11:21:14;;;;;;;30.90;15.93;;;;;;;5.61;69.30;92836.75;2071890;69;20160;-79
2022/12/01 11:23:51;;;;;;;31.85;16.75;;;;;;;5.48;69.93;92832.25;2068500;69;20170;-76
2022/12/01 11:26:22;;;;;;;33.63;17.00;;;;;;;6.00;68.93;92834.28;2071563;69;20325;-79
2022/12/01 11:28:58;;;;;;;30.17;15.90;;;;;;;5.94;68.01;92828.94;2071568;69;20142;-78
2022/12/01 11:31:45;;;;;;;30.38;16.20;;;;;;;5.96;66.88;92839.56;2068475;69;20148;-81
2022/12/01 11:34:26;;;;;;;28.08;15.43;;;;;;;5.76;67.25;92831.00;2071463;69;20287;-87
2022/12/01 11:37:15;;;;;;;28.85;15.63;;;;;;;5.82;68.31;92828.72;2071568;69;20144;-75
2022/12/01 11:39:42;;;;;;;32.50;16.98;;;;;;;5.71;67.99;92825.66;2071485;69;20270;-75
2022/12/01 11:42:17;;;;;;;28.55;15.88;;;;;;;5.96;67.61;92826.34;2071625;69;20209;-76
2022/12/01 11:44:55;;;;;;;32.00;16.70;;;;;;;6.30;66.68;92822.69;2071596;69;20606;-76